sensor_id;sensor_type;location;lat;lon;timestamp;pressure;altitude;pressure_sealevel;temperature;humidity
37824;BME280;23667;43.246;26.576;2022-07-23T00:02:24;99458.75;;;18.74;100.00
37824;BME280;23667;43.246;26.576;2022-07-23T00:04:49;99463.72;;;18.93;100.00
37824;BME280;23667;43.246;26.576;2022-07-23T00:07:14;99468.13;;;18.93;100.00
37824;BME280;23667;43.246;26.576;2022-07-23T00:09:40;99464.03;;;18.74;100.00
37824;BME280;23667;43.246;26.576;2022-07-23T00:12:06;99462.91;;;18.78;100.00
37824;BME280;23667;43.246;26.576;2022-07-23T00:14:31;99463.75;;;18.79;100.00
37824;BME280;23667;43.246;26.576;2022-07-23T00:16:57;99466.59;;;18.76;100.00
37824;BME280;23667;43.246;26.576;2022-07-23T00:19:22;99460.88;;;18.55;100.00
37824;BME280;23667;43.246;26.576;2022-07-23T00:21:48;99463.31;;;18.58;100.00
37824;BME280;23667;43.246;26.576;2022-07-23T00:24:13;99460.66;;;18.58;100.00
37824;BME280;23667;43.246;26.576;2022-07-23T00:26:39;99466.88;;;18.57;100.00
37824;BME280;23667;43.246;26.576;2022-07-23T00:29:04;99467.56;;;18.60;100.00
37824;BME280;23667;43.246;26.576;2022-07-23T00:31:30;99466.78;;;18.58;100.00
37824;BME280;23667;43.246;26.576;2022-07-23T00:33:56;99464.03;;;18.60;100.00
37824;BME280;23667;43.246;26.576;2022-07-23T00:36:23;99465.66;;;18.62;100.00
37824;BME280;23667;43.246;26.576;2022-07-23T00:38:49;99465.19;;;18.56;100.00
37824;BME280;23667;43.246;26.576;2022-07-23T00:41:15;99466.34;;;18.52;100.00
37824;BME280;23667;43.246;26.576;2022-07-23T00:43:41;99461.97;;;18.51;100.00
37824;BME280;23667;43.246;26.576;2022-07-23T00:46:07;99457.28;;;18.56;100.00
37824;BME280;23667;43.246;26.576;2022-07-23T00:48:33;99458.94;;;18.57;100.00
37824;BME280;23667;43.246;26.576;2022-07-23T00:50:58;99460.34;;;18.62;100.00
37824;BME280;23667;43.246;26.576;2022-07-23T00:53:24;99453.88;;;18.54;100.00
37824;BME280;23667;43.246;26.576;2022-07-23T00:55:50;99456.84;;;18.35;100.00
37824;BME280;23667;43.246;26.576;2022-07-23T00:58:16;99457.66;;;18.35;100.00
37824;BME280;23667;43.246;26.576;2022-07-23T01:00:42;99456.66;;;18.24;100.00
37824;BME280;23667;43.246;26.576;2022-07-23T01:03:07;99465.03;;;18.30;100.00
37824;BME280;23667;43.246;26.576;2022-07-23T01:05:33;99459.47;;;18.35;100.00
37824;BME280;23667;43.246;26.576;2022-07-23T01:07:59;99452.13;;;18.40;100.00
37824;BME280;23667;43.246;26.576;2022-07-23T01:10:25;99454.31;;;18.19;100.00
37824;BME280;23667;43.246;26.576;2022-07-23T01:13:03;99453.94;;;18.25;100.00
37824;BME280;23667;43.246;26.576;2022-07-23T01:15:29;99453.25;;;18.22;100.00
37824;BME280;23667;43.246;26.576;2022-07-23T01:17:54;99455.22;;;18.18;100.00
37824;BME280;23667;43.246;26.576;2022-07-23T01:20:20;99461.53;;;18.01;100.00
37824;BME280;23667;43.246;26.576;2022-07-23T01:22:46;99456.56;;;18.11;100.00
37824;BME280;23667;43.246;26.576;2022-07-23T01:25:12;99459.19;;;18.11;100.00
37824;BME280;23667;43.246;26.576;2022-07-23T01:27:37;99457.47;;;18.10;100.00
37824;BME280;23667;43.246;26.576;2022-07-23T01:30:04;99454.00;;;18.09;100.00
37824;BME280;23667;43.246;26.576;2022-07-23T01:32:29;99449.94;;;18.04;100.00
37824;BME280;23667;43.246;26.576;2022-07-23T01:34:55;99450.63;;;18.07;100.00
37824;BME280;23667;43.246;26.576;2022-07-23T01:37:21;99443.75;;;18.05;100.00
37824;BME280;23667;43.246;26.576;2022-07-23T01:39:47;99441.94;;;18.05;100.00
37824;BME280;23667;43.246;26.576;2022-07-23T01:42:12;99447.81;;;18.10;100.00
37824;BME280;23667;43.246;26.576;2022-07-23T01:44:38;99441.94;;;18.05;100.00
37824;BME280;23667;43.246;26.576;2022-07-23T01:47:03;99444.19;;;17.97;100.00
37824;BME280;23667;43.246;26.576;2022-07-23T01:49:29;99440.53;;;18.00;100.00
37824;BME280;23667;43.246;26.576;2022-07-23T01:51:54;99442.53;;;17.96;100.00
37824;BME280;23667;43.246;26.576;2022-07-23T01:54:31;99445.16;;;17.96;100.00
37824;BME280;23667;43.246;26.576;2022-07-23T01:56:56;99441.69;;;17.95;100.00
37824;BME280;23667;43.246;26.576;2022-07-23T01:59:22;99446.81;;;17.83;100.00
37824;BME280;23667;43.246;26.576;2022-07-23T02:01:48;99443.88;;;17.73;100.00
37824;BME280;23667;43.246;26.576;2022-07-23T02:04:16;99443.47;;;17.65;100.00
37824;BME280;23667;43.246;26.576;2022-07-23T02:06:42;99437.47;;;17.77;100.00
37824;BME280;23667;43.246;26.576;2022-07-23T02:09:07;99445.16;;;17.82;100.00
37824;BME280;23667;43.246;26.576;2022-07-23T02:11:33;99445.41;;;17.47;100.00
37824;BME280;23667;43.246;26.576;2022-07-23T02:13:59;99445.66;;;17.28;100.00
37824;BME280;23667;43.246;26.576;2022-07-23T02:16:24;99452.91;;;17.24;100.00
37824;BME280;23667;43.246;26.576;2022-07-23T02:18:50;99443.88;;;17.28;100.00
37824;BME280;23667;43.246;26.576;2022-07-23T02:21:15;99451.81;;;17.13;100.00
37824;BME280;23667;43.246;26.576;2022-07-23T02:23:41;99455.50;;;16.94;100.00
37824;BME280;23667;43.246;26.576;2022-07-23T02:26:06;99455.41;;;16.80;100.00
37824;BME280;23667;43.246;26.576;2022-07-23T02:28:32;99454.66;;;16.78;100.00
37824;BME280;23667;43.246;26.576;2022-07-23T02:30:57;99457.94;;;16.97;100.00
37824;BME280;23667;43.246;26.576;2022-07-23T02:33:23;99452.59;;;16.99;100.00
37824;BME280;23667;43.246;26.576;2022-07-23T02:35:49;99457.78;;;17.00;100.00
37824;BME280;23667;43.246;26.576;2022-07-23T02:38:14;99460.84;;;16.77;100.00
37824;BME280;23667;43.246;26.576;2022-07-23T02:40:40;99461.44;;;16.82;100.00
37824;BME280;23667;43.246;26.576;2022-07-23T02:43:05;99458.28;;;16.91;100.00
37824;BME280;23667;43.246;26.576;2022-07-23T02:45:31;99462.06;;;16.87;100.00
37824;BME280;23667;43.246;26.576;2022-07-23T02:47:56;99459.59;;;16.84;100.00
37824;BME280;23667;43.246;26.576;2022-07-23T02:50:22;99460.69;;;16.80;100.00
37824;BME280;23667;43.246;26.576;2022-07-23T02:52:48;99460.84;;;16.77;100.00
37824;BME280;23667;43.246;26.576;2022-07-23T02:55:14;99465.81;;;16.83;100.00
37824;BME280;23667;43.246;26.576;2022-07-23T02:57:39;99470.25;;;16.65;100.00
37824;BME280;23667;43.246;26.576;2022-07-23T03:00:06;99470.53;;;16.76;100.00
37824;BME280;23667;43.246;26.576;2022-07-23T03:02:32;99468.16;;;16.88;100.00
37824;BME280;23667;43.246;26.576;2022-07-23T03:04:58;99471.38;;;17.09;100.00
37824;BME280;23667;43.246;26.576;2022-07-23T03:07:23;99475.09;;;17.20;100.00
37824;BME280;23667;43.246;26.576;2022-07-23T03:09:49;99474.47;;;17.31;100.00
37824;BME280;23667;43.246;26.576;2022-07-23T03:12:15;99481.53;;;17.31;100.00
37824;BME280;23667;43.246;26.576;2022-07-23T03:14:41;99478.63;;;17.35;100.00
37824;BME280;23667;43.246;26.576;2022-07-23T03:17:07;99482.91;;;17.22;100.00
37824;BME280;23667;43.246;26.576;2022-07-23T03:19:32;99491.66;;;17.06;100.00
37824;BME280;23667;43.246;26.576;2022-07-23T03:21:58;99487.53;;;17.02;100.00
37824;BME280;23667;43.246;26.576;2022-07-23T03:24:23;99490.94;;;17.35;100.00
37824;BME280;23667;43.246;26.576;2022-07-23T03:27:09;99483.72;;;17.38;100.00
37824;BME280;23667;43.246;26.576;2022-07-23T03:29:34;99480.19;;;17.54;100.00
37824;BME280;23667;43.246;26.576;2022-07-23T03:32:03;99486.50;;;17.81;100.00
37824;BME280;23667;43.246;26.576;2022-07-23T03:34:28;99488.13;;;17.84;100.00
37824;BME280;23667;43.246;26.576;2022-07-23T03:36:54;99486.13;;;17.87;100.00
37824;BME280;23667;43.246;26.576;2022-07-23T03:39:19;99487.84;;;18.03;100.00
37824;BME280;23667;43.246;26.576;2022-07-23T03:41:44;99487.25;;;17.83;100.00
37824;BME280;23667;43.246;26.576;2022-07-23T03:44:10;99492.81;;;17.63;100.00
37824;BME280;23667;43.246;26.576;2022-07-23T03:46:36;99486.41;;;17.83;100.00
37824;BME280;23667;43.246;26.576;2022-07-23T03:49:01;99486.88;;;18.04;100.00
37824;BME280;23667;43.246;26.576;2022-07-23T03:51:27;99479.75;;;18.20;100.00
37824;BME280;23667;43.246;26.576;2022-07-23T03:53:52;99477.94;;;18.21;100.00
37824;BME280;23667;43.246;26.576;2022-07-23T03:56:18;99481.06;;;18.41;100.00
37824;BME280;23667;43.246;26.576;2022-07-23T03:58:43;99482.94;;;18.39;100.00
37824;BME280;23667;43.246;26.576;2022-07-23T04:01:09;99481.41;;;18.64;100.00
37824;BME280;23667;43.246;26.576;2022-07-23T04:03:34;99477.41;;;18.71;100.00
37824;BME280;23667;43.246;26.576;2022-07-23T04:06:00;99478.22;;;18.73;100.00
37824;BME280;23667;43.246;26.576;2022-07-23T04:08:25;99488.00;;;18.85;100.00
37824;BME280;23667;43.246;26.576;2022-07-23T04:10:51;99483.25;;;18.91;100.00
37824;BME280;23667;43.246;26.576;2022-07-23T04:13:17;99487.56;;;19.06;100.00
37824;BME280;23667;43.246;26.576;2022-07-23T04:15:42;99487.63;;;19.04;100.00
37824;BME280;23667;43.246;26.576;2022-07-23T04:18:08;99483.94;;;19.07;100.00
37824;BME280;23667;43.246;26.576;2022-07-23T04:20:33;99487.31;;;19.23;100.00
37824;BME280;23667;43.246;26.576;2022-07-23T04:22:59;99485.13;;;19.43;100.00
37824;BME280;23667;43.246;26.576;2022-07-23T04:25:24;99494.16;;;19.53;100.00
37824;BME280;23667;43.246;26.576;2022-07-23T04:27:50;99499.13;;;19.58;100.00
37824;BME280;23667;43.246;26.576;2022-07-23T04:30:15;99497.53;;;19.55;100.00
37824;BME280;23667;43.246;26.576;2022-07-23T04:32:41;99498.41;;;19.55;100.00
37824;BME280;23667;43.246;26.576;2022-07-23T04:35:07;99489.88;;;19.77;100.00
37824;BME280;23667;43.246;26.576;2022-07-23T04:37:32;99495.91;;;20.05;100.00
37824;BME280;23667;43.246;26.576;2022-07-23T04:39:58;99492.66;;;19.89;100.00
37824;BME280;23667;43.246;26.576;2022-07-23T04:42:23;99492.75;;;20.00;100.00
37824;BME280;23667;43.246;26.576;2022-07-23T04:44:49;99489.25;;;20.12;100.00
37824;BME280;23667;43.246;26.576;2022-07-23T04:47:14;99492.44;;;20.17;100.00
37824;BME280;23667;43.246;26.576;2022-07-23T04:49:40;99489.88;;;20.29;100.00
37824;BME280;23667;43.246;26.576;2022-07-23T04:52:05;99494.13;;;20.44;100.00
37824;BME280;23667;43.246;26.576;2022-07-23T04:54:31;99494.47;;;20.76;100.00
37824;BME280;23667;43.246;26.576;2022-07-23T04:56:56;99488.25;;;21.01;100.00
37824;BME280;23667;43.246;26.576;2022-07-23T04:59:22;99491.56;;;21.16;100.00
37824;BME280;23667;43.246;26.576;2022-07-23T05:01:47;99486.63;;;21.35;100.00
37824;BME280;23667;43.246;26.576;2022-07-23T05:04:13;99497.53;;;21.90;100.00
37824;BME280;23667;43.246;26.576;2022-07-23T05:06:38;99496.22;;;21.96;100.00
37824;BME280;23667;43.246;26.576;2022-07-23T05:09:04;99486.56;;;21.95;100.00
37824;BME280;23667;43.246;26.576;2022-07-23T05:11:29;99498.53;;;22.12;100.00
37824;BME280;23667;43.246;26.576;2022-07-23T05:13:55;99495.69;;;22.60;100.00
37824;BME280;23667;43.246;26.576;2022-07-23T05:16:22;99489.63;;;25.09;100.00
37824;BME280;23667;43.246;26.576;2022-07-23T05:18:48;99484.38;;;28.31;89.79
37824;BME280;23667;43.246;26.576;2022-07-23T05:21:13;99487.22;;;30.21;75.91
37824;BME280;23667;43.246;26.576;2022-07-23T05:23:39;99491.34;;;32.17;65.45
37824;BME280;23667;43.246;26.576;2022-07-23T05:26:04;99490.34;;;33.35;58.56
37824;BME280;23667;43.246;26.576;2022-07-23T05:28:30;99486.84;;;35.02;53.12
37824;BME280;23667;43.246;26.576;2022-07-23T05:30:55;99498.78;;;34.25;51.13
37824;BME280;23667;43.246;26.576;2022-07-23T05:33:21;99495.78;;;33.85;52.64
37824;BME280;23667;43.246;26.576;2022-07-23T05:35:47;99494.19;;;36.54;47.76
37824;BME280;23667;43.246;26.576;2022-07-23T05:38:12;99492.41;;;35.95;47.18
37824;BME280;23667;43.246;26.576;2022-07-23T05:40:38;99495.28;;;35.40;47.61
37824;BME280;23667;43.246;26.576;2022-07-23T05:43:03;99495.97;;;34.05;48.52
37824;BME280;23667;43.246;26.576;2022-07-23T05:45:29;99492.84;;;35.65;47.43
37824;BME280;23667;43.246;26.576;2022-07-23T05:47:54;99499.03;;;34.64;46.38
37824;BME280;23667;43.246;26.576;2022-07-23T05:50:20;99496.09;;;34.59;48.03
37824;BME280;23667;43.246;26.576;2022-07-23T05:52:46;99501.94;;;36.37;45.07
37824;BME280;23667;43.246;26.576;2022-07-23T05:55:12;99503.38;;;37.05;43.00
37824;BME280;23667;43.246;26.576;2022-07-23T05:57:38;99502.47;;;38.80;40.29
37824;BME280;23667;43.246;26.576;2022-07-23T06:00:06;99502.03;;;40.73;37.20
37824;BME280;23667;43.246;26.576;2022-07-23T06:02:32;99504.72;;;39.97;36.05
37824;BME280;23667;43.246;26.576;2022-07-23T06:04:57;99503.06;;;40.83;36.10
37824;BME280;23667;43.246;26.576;2022-07-23T06:07:23;99503.22;;;42.62;32.75
37824;BME280;23667;43.246;26.576;2022-07-23T06:09:48;99505.47;;;41.71;32.77
37824;BME280;23667;43.246;26.576;2022-07-23T06:12:15;99512.38;;;42.07;32.74
37824;BME280;23667;43.246;26.576;2022-07-23T06:14:41;99505.00;;;43.17;32.12
37824;BME280;23667;43.246;26.576;2022-07-23T06:17:06;99512.09;;;42.69;31.83
37824;BME280;23667;43.246;26.576;2022-07-23T06:19:32;99501.81;;;44.43;30.59
37824;BME280;23667;43.246;26.576;2022-07-23T06:21:57;99505.91;;;45.03;29.98
37824;BME280;23667;43.246;26.576;2022-07-23T06:24:23;99495.50;;;45.21;28.83
37824;BME280;23667;43.246;26.576;2022-07-23T06:26:48;99499.09;;;45.26;29.26
37824;BME280;23667;43.246;26.576;2022-07-23T06:29:14;99513.00;;;44.26;29.16
37824;BME280;23667;43.246;26.576;2022-07-23T06:31:39;99503.50;;;43.96;29.38
37824;BME280;23667;43.246;26.576;2022-07-23T06:34:05;99497.09;;;45.88;28.10
37824;BME280;23667;43.246;26.576;2022-07-23T06:36:30;99500.34;;;46.26;26.98
37824;BME280;23667;43.246;26.576;2022-07-23T06:38:56;99502.41;;;45.54;27.20
37824;BME280;23667;43.246;26.576;2022-07-23T06:41:21;99493.75;;;44.89;28.34
37824;BME280;23667;43.246;26.576;2022-07-23T06:43:48;99494.91;;;45.85;28.18
37824;BME280;23667;43.246;26.576;2022-07-23T06:46:14;99493.25;;;46.10;27.68
37824;BME280;23667;43.246;26.576;2022-07-23T06:48:39;99486.75;;;46.50;27.39
37824;BME280;23667;43.246;26.576;2022-07-23T06:51:05;99495.50;;;46.78;26.59
37824;BME280;23667;43.246;26.576;2022-07-23T06:53:30;99498.00;;;47.87;25.28
37824;BME280;23667;43.246;26.576;2022-07-23T06:55:58;99491.88;;;45.10;26.71
37824;BME280;23667;43.246;26.576;2022-07-23T06:58:23;99504.47;;;41.94;29.36
37824;BME280;23667;43.246;26.576;2022-07-23T07:00:48;99505.00;;;40.71;31.07
37824;BME280;23667;43.246;26.576;2022-07-23T07:03:16;99497.47;;;40.78;31.41
37824;BME280;23667;43.246;26.576;2022-07-23T07:05:42;99494.31;;;42.50;31.11
37824;BME280;23667;43.246;26.576;2022-07-23T07:08:07;99499.06;;;45.47;28.94
37824;BME280;23667;43.246;26.576;2022-07-23T07:10:33;99498.41;;;46.96;27.83
37824;BME280;23667;43.246;26.576;2022-07-23T07:12:59;99496.69;;;47.11;27.67
37824;BME280;23667;43.246;26.576;2022-07-23T07:15:24;99508.09;;;48.26;26.62
37824;BME280;23667;43.246;26.576;2022-07-23T07:17:50;99498.31;;;48.77;25.67
37824;BME280;23667;43.246;26.576;2022-07-23T07:20:15;99505.94;;;48.66;25.27
37824;BME280;23667;43.246;26.576;2022-07-23T07:22:41;99498.22;;;50.31;24.21
37824;BME280;23667;43.246;26.576;2022-07-23T07:25:07;99500.34;;;51.12;23.66
37824;BME280;23667;43.246;26.576;2022-07-23T07:27:33;99500.88;;;49.95;23.64
37824;BME280;23667;43.246;26.576;2022-07-23T07:29:58;99501.25;;;48.18;25.18
37824;BME280;23667;43.246;26.576;2022-07-23T07:32:24;99494.81;;;47.40;25.05
37824;BME280;23667;43.246;26.576;2022-07-23T07:34:50;99494.69;;;47.56;24.72
37824;BME280;23667;43.246;26.576;2022-07-23T07:37:16;99490.28;;;45.50;26.63
37824;BME280;23667;43.246;26.576;2022-07-23T07:39:41;99491.88;;;47.61;25.36
37824;BME280;23667;43.246;26.576;2022-07-23T07:42:07;99493.78;;;49.24;25.19
37824;BME280;23667;43.246;26.576;2022-07-23T07:44:32;99494.75;;;49.66;24.33
37824;BME280;23667;43.246;26.576;2022-07-23T07:46:58;99496.50;;;50.36;23.83
37824;BME280;23667;43.246;26.576;2022-07-23T07:49:23;99497.44;;;49.71;22.87
37824;BME280;23667;43.246;26.576;2022-07-23T07:51:49;99493.75;;;49.42;23.70
37824;BME280;23667;43.246;26.576;2022-07-23T07:54:14;99501.97;;;49.48;23.32
37824;BME280;23667;43.246;26.576;2022-07-23T07:56:40;99488.84;;;50.69;22.49
37824;BME280;23667;43.246;26.576;2022-07-23T07:59:06;99490.22;;;50.44;22.86
37824;BME280;23667;43.246;26.576;2022-07-23T08:01:32;99483.91;;;52.49;22.25
37824;BME280;23667;43.246;26.576;2022-07-23T08:03:57;99482.28;;;52.74;20.30
37824;BME280;23667;43.246;26.576;2022-07-23T08:06:23;99487.25;;;51.80;20.57
37824;BME280;23667;43.246;26.576;2022-07-23T08:08:49;99486.97;;;47.53;22.58
37824;BME280;23667;43.246;26.576;2022-07-23T08:11:15;99471.63;;;49.24;22.16
37824;BME280;23667;43.246;26.576;2022-07-23T08:13:40;99465.91;;;51.36;21.73
37824;BME280;23667;43.246;26.576;2022-07-23T08:16:06;99470.56;;;52.20;21.10
37824;BME280;23667;43.246;26.576;2022-07-23T08:18:32;99469.38;;;50.83;19.60
37824;BME280;23667;43.246;26.576;2022-07-23T08:20:57;99477.25;;;44.31;23.12
37824;BME280;23667;43.246;26.576;2022-07-23T08:23:23;99473.03;;;44.03;23.85
37824;BME280;23667;43.246;26.576;2022-07-23T08:25:48;99465.94;;;46.18;23.53
37824;BME280;23667;43.246;26.576;2022-07-23T08:28:14;99464.38;;;49.09;22.45
37824;BME280;23667;43.246;26.576;2022-07-23T08:30:43;99465.25;;;50.02;21.89
37824;BME280;23667;43.246;26.576;2022-07-23T08:33:13;99456.50;;;49.49;22.22
37824;BME280;23667;43.246;26.576;2022-07-23T08:35:58;99469.06;;;50.20;21.74
37824;BME280;23667;43.246;26.576;2022-07-23T08:38:24;99470.53;;;47.67;21.78
37824;BME280;23667;43.246;26.576;2022-07-23T08:40:52;99462.25;;;46.98;22.28
37824;BME280;23667;43.246;26.576;2022-07-23T08:43:23;99464.75;;;48.64;22.10
37824;BME280;23667;43.246;26.576;2022-07-23T08:45:52;99463.56;;;48.89;20.96
37824;BME280;23667;43.246;26.576;2022-07-23T08:48:20;99467.41;;;45.75;23.00
37824;BME280;23667;43.246;26.576;2022-07-23T08:50:58;99463.88;;;43.23;25.32
37824;BME280;23667;43.246;26.576;2022-07-23T08:53:26;99465.47;;;41.87;25.81
37824;BME280;23667;43.246;26.576;2022-07-23T08:55:55;99447.00;;;42.82;26.42
37824;BME280;23667;43.246;26.576;2022-07-23T08:58:21;99453.94;;;41.34;27.70
37824;BME280;23667;43.246;26.576;2022-07-23T09:00:47;99461.81;;;39.50;29.77
37824;BME280;23667;43.246;26.576;2022-07-23T09:03:17;99454.66;;;38.10;31.08
37824;BME280;23667;43.246;26.576;2022-07-23T09:05:43;99450.44;;;36.11;31.44
37824;BME280;23667;43.246;26.576;2022-07-23T09:10:57;99457.38;;;33.68;34.45
37824;BME280;23667;43.246;26.576;2022-07-23T09:16:05;99460.91;;;33.04;35.23
37824;BME280;23667;43.246;26.576;2022-07-23T09:18:33;99457.00;;;33.28;36.82
37824;BME280;23667;43.246;26.576;2022-07-23T09:21:10;99454.16;;;33.36;36.24
37824;BME280;23667;43.246;26.576;2022-07-23T09:23:38;99451.84;;;33.33;35.29
37824;BME280;23667;43.246;26.576;2022-07-23T09:31:33;99435.00;;;34.09;35.90
37824;BME280;23667;43.246;26.576;2022-07-23T09:34:09;99427.66;;;34.03;35.84
37824;BME280;23667;43.246;26.576;2022-07-23T09:36:35;99436.63;;;34.03;35.56
37824;BME280;23667;43.246;26.576;2022-07-23T09:39:01;99440.19;;;34.10;35.38
37824;BME280;23667;43.246;26.576;2022-07-23T09:41:34;99432.81;;;34.26;35.37
37824;BME280;23667;43.246;26.576;2022-07-23T09:44:07;99429.75;;;34.42;35.62
37824;BME280;23667;43.246;26.576;2022-07-23T09:46:33;99430.75;;;34.34;35.78
37824;BME280;23667;43.246;26.576;2022-07-23T09:49:10;99424.94;;;34.03;34.59
37824;BME280;23667;43.246;26.576;2022-07-23T09:51:56;99423.63;;;34.27;35.52
37824;BME280;23667;43.246;26.576;2022-07-23T09:54:36;99423.88;;;34.32;34.72
37824;BME280;23667;43.246;26.576;2022-07-23T09:57:11;99421.19;;;34.38;35.46
37824;BME280;23667;43.246;26.576;2022-07-23T09:59:41;99420.72;;;34.28;34.90
37824;BME280;23667;43.246;26.576;2022-07-23T10:02:09;99421.22;;;34.45;35.96
37824;BME280;23667;43.246;26.576;2022-07-23T10:04:36;99410.25;;;34.12;36.86
37824;BME280;23667;43.246;26.576;2022-07-23T10:07:03;99407.00;;;34.36;36.46
37824;BME280;23667;43.246;26.576;2022-07-23T10:09:32;99410.38;;;34.38;35.60
37824;BME280;23667;43.246;26.576;2022-07-23T10:12:01;99405.09;;;34.24;35.71
37824;BME280;23667;43.246;26.576;2022-07-23T10:14:44;99401.81;;;34.35;35.22
37824;BME280;23667;43.246;26.576;2022-07-23T10:17:10;99406.84;;;34.45;36.07
37824;BME280;23667;43.246;26.576;2022-07-23T10:19:36;99390.44;;;34.05;35.61
37824;BME280;23667;43.246;26.576;2022-07-23T10:22:11;99392.97;;;34.13;35.34
37824;BME280;23667;43.246;26.576;2022-07-23T10:35:50;99383.19;;;33.84;37.22
37824;BME280;23667;43.246;26.576;2022-07-23T10:38:24;99381.47;;;34.04;36.49
37824;BME280;23667;43.246;26.576;2022-07-23T10:43:24;99375.91;;;34.19;35.36
37824;BME280;23667;43.246;26.576;2022-07-23T10:45:50;99369.94;;;34.30;35.81
37824;BME280;23667;43.246;26.576;2022-07-23T10:48:20;99368.06;;;34.31;35.65
37824;BME280;23667;43.246;26.576;2022-07-23T10:51:11;99364.31;;;34.32;36.52
37824;BME280;23667;43.246;26.576;2022-07-23T10:53:58;99362.38;;;34.19;35.76
37824;BME280;23667;43.246;26.576;2022-07-23T10:59:16;99366.63;;;33.93;35.25
37824;BME280;23667;43.246;26.576;2022-07-23T11:01:41;99360.44;;;33.71;35.86
37824;BME280;23667;43.246;26.576;2022-07-23T11:04:07;99360.50;;;33.78;35.25
37824;BME280;23667;43.246;26.576;2022-07-23T11:09:24;99354.22;;;33.71;35.52
37824;BME280;23667;43.246;26.576;2022-07-23T11:15:05;99347.34;;;33.75;36.08
37824;BME280;23667;43.246;26.576;2022-07-23T11:25:14;99340.13;;;33.82;35.18
37824;BME280;23667;43.246;26.576;2022-07-23T11:27:54;99350.28;;;34.08;36.43
37824;BME280;23667;43.246;26.576;2022-07-23T11:32:51;99344.38;;;33.98;36.69
37824;BME280;23667;43.246;26.576;2022-07-23T11:35:25;99335.50;;;33.69;35.59
37824;BME280;23667;43.246;26.576;2022-07-23T11:38:04;99340.28;;;33.74;35.85
37824;BME280;23667;43.246;26.576;2022-07-23T11:40:30;99328.75;;;33.93;35.08
37824;BME280;23667;43.246;26.576;2022-07-23T11:43:04;99338.56;;;34.01;35.59
37824;BME280;23667;43.246;26.576;2022-07-23T11:45:38;99337.94;;;33.99;36.24
37824;BME280;23667;43.246;26.576;2022-07-23T11:48:05;99335.06;;;34.07;37.29
37824;BME280;23667;43.246;26.576;2022-07-23T11:50:31;99327.66;;;33.81;36.95
37824;BME280;23667;43.246;26.576;2022-07-23T11:52:58;99326.88;;;33.94;35.33
37824;BME280;23667;43.246;26.576;2022-07-23T11:55:24;99329.06;;;34.18;35.73
37824;BME280;23667;43.246;26.576;2022-07-23T11:57:51;99314.59;;;33.98;35.96
37824;BME280;23667;43.246;26.576;2022-07-23T12:00:23;99318.41;;;34.04;36.33
37824;BME280;23667;43.246;26.576;2022-07-23T12:02:55;99322.19;;;34.09;36.53
37824;BME280;23667;43.246;26.576;2022-07-23T12:05:32;99322.91;;;33.90;36.09
37824;BME280;23667;43.246;26.576;2022-07-23T12:07:59;99325.38;;;33.85;36.88
37824;BME280;23667;43.246;26.576;2022-07-23T12:13:01;99318.59;;;34.02;36.20
37824;BME280;23667;43.246;26.576;2022-07-23T12:15:33;99317.03;;;34.28;35.28
37824;BME280;23667;43.246;26.576;2022-07-23T12:18:02;99316.84;;;34.36;35.75
37824;BME280;23667;43.246;26.576;2022-07-23T12:20:31;99306.25;;;34.41;35.86
37824;BME280;23667;43.246;26.576;2022-07-23T12:23:00;99300.19;;;34.26;36.22
37824;BME280;23667;43.246;26.576;2022-07-23T12:25:30;99305.97;;;34.16;35.29
37824;BME280;23667;43.246;26.576;2022-07-23T12:28:10;99291.19;;;34.18;35.37
37824;BME280;23667;43.246;26.576;2022-07-23T12:30:39;99299.13;;;34.27;36.24
37824;BME280;23667;43.246;26.576;2022-07-23T12:33:07;99295.19;;;34.29;35.76
37824;BME280;23667;43.246;26.576;2022-07-23T12:35:36;99283.78;;;34.47;36.14
37824;BME280;23667;43.246;26.576;2022-07-23T12:38:05;99284.66;;;34.61;35.98
37824;BME280;23667;43.246;26.576;2022-07-23T12:40:34;99285.84;;;34.52;36.47
37824;BME280;23667;43.246;26.576;2022-07-23T12:45:52;99282.97;;;34.60;36.30
37824;BME280;23667;43.246;26.576;2022-07-23T12:50:55;99284.84;;;34.66;35.58
37824;BME280;23667;43.246;26.576;2022-07-23T12:53:24;99289.66;;;34.77;34.84
37824;BME280;23667;43.246;26.576;2022-07-23T12:55:57;99285.72;;;34.80;36.08
37824;BME280;23667;43.246;26.576;2022-07-23T12:58:24;99280.69;;;34.83;35.53
37824;BME280;23667;43.246;26.576;2022-07-23T13:01:04;99280.06;;;34.75;34.64
37824;BME280;23667;43.246;26.576;2022-07-23T13:03:31;99279.84;;;34.56;35.59
37824;BME280;23667;43.246;26.576;2022-07-23T13:05:57;99270.41;;;34.46;36.04
37824;BME280;23667;43.246;26.576;2022-07-23T13:08:24;99274.16;;;34.31;36.00
37824;BME280;23667;43.246;26.576;2022-07-23T13:10:50;99275.41;;;34.29;35.51
37824;BME280;23667;43.246;26.576;2022-07-23T13:13:20;99262.31;;;34.39;36.26
37824;BME280;23667;43.246;26.576;2022-07-23T13:15:46;99260.19;;;34.28;35.69
37824;BME280;23667;43.246;26.576;2022-07-23T13:18:11;99249.00;;;34.44;35.98
37824;BME280;23667;43.246;26.576;2022-07-23T13:20:38;99249.66;;;34.73;36.52
37824;BME280;23667;43.246;26.576;2022-07-23T13:23:07;99247.97;;;34.78;35.27
37824;BME280;23667;43.246;26.576;2022-07-23T13:25:32;99249.84;;;34.78;35.74
37824;BME280;23667;43.246;26.576;2022-07-23T13:27:58;99245.06;;;34.80;36.10
37824;BME280;23667;43.246;26.576;2022-07-23T13:30:24;99239.44;;;34.95;36.05
37824;BME280;23667;43.246;26.576;2022-07-23T13:32:50;99244.25;;;34.86;36.35
37824;BME280;23667;43.246;26.576;2022-07-23T13:35:15;99248.59;;;34.87;36.42
37824;BME280;23667;43.246;26.576;2022-07-23T13:37:41;99242.78;;;34.97;36.76